createdAt,value
2018-07-25T00:00:10.170Z,29.47
2018-07-25T00:00:36.306Z,29.49
2018-07-25T00:01:02.451Z,29.42
2018-07-25T00:01:28.636Z,29.49
2018-07-25T00:01:54.785Z,29.39
2018-07-25T00:02:20.924Z,29.47
2018-07-25T00:02:47.065Z,29.49
2018-07-25T00:03:13.206Z,29.5
2018-07-25T00:03:39.345Z,29.49
2018-07-25T00:04:05.478Z,29.49
2018-07-25T00:04:31.615Z,29.41
2018-07-25T00:04:57.757Z,29.45
2018-07-25T00:05:23.896Z,29.49
2018-07-25T00:05:50.057Z,29.39
2018-07-25T00:06:16.201Z,29.42
2018-07-25T00:06:42.339Z,29.36
2018-07-25T00:07:08.476Z,29.42
2018-07-25T00:07:34.617Z,29.34
2018-07-25T00:08:00.760Z,29.38
2018-07-25T00:08:26.897Z,29.32
2018-07-25T00:08:53.045Z,29.41
2018-07-25T00:09:19.183Z,29.32
2018-07-25T00:09:45.322Z,29.35
2018-07-25T00:10:11.472Z,29.35
2018-07-25T00:10:37.612Z,29.35
2018-07-25T00:11:03.743Z,29.34
2018-07-25T00:11:29.885Z,29.23
2018-07-25T00:11:56.025Z,29.27
2018-07-25T00:12:22.184Z,29.29
2018-07-25T00:12:48.321Z,29.34
2018-07-25T00:13:14.460Z,29.27
2018-07-25T00:13:40.631Z,29.22
2018-07-25T00:14:06.766Z,29.26
2018-07-25T00:14:32.903Z,29.23
2018-07-25T00:14:59.043Z,29.24
2018-07-25T00:15:25.186Z,29.12
2018-07-25T00:15:51.328Z,29.17
2018-07-25T00:16:17.474Z,29.12
2018-07-25T00:16:43.609Z,29.13
2018-07-25T00:17:09.743Z,29.14
2018-07-25T00:17:35.885Z,29.16
2018-07-25T00:18:02.032Z,29.12
2018-07-25T00:18:28.175Z,29.16
2018-07-25T00:18:54.301Z,29.08
2018-07-25T00:19:20.444Z,29.14
2018-07-25T00:19:46.608Z,29.12
2018-07-25T00:20:12.773Z,29.13
2018-07-25T00:20:38.943Z,29.1
2018-07-25T00:21:05.088Z,29.1
2018-07-25T00:21:31.282Z,29.07
2018-07-25T00:21:57.370Z,29.07
2018-07-25T00:22:23.508Z,29.07
2018-07-25T00:22:49.670Z,29.01
2018-07-25T00:23:15.810Z,29.04
2018-07-25T00:23:41.952Z,29.05
2018-07-25T00:24:08.120Z,28.91
2018-07-25T00:24:34.259Z,29.05
2018-07-25T00:25:00.397Z,29.04
2018-07-25T00:25:26.567Z,29.01
2018-07-25T00:25:52.709Z,28.98
2018-07-25T00:26:18.843Z,28.93
2018-07-25T00:26:44.981Z,28.88
2018-07-25T00:27:11.124Z,28.91
2018-07-25T00:27:37.265Z,28.85
2018-07-25T00:28:03.430Z,28.86
2018-07-25T00:28:29.591Z,28.82
2018-07-25T00:28:55.731Z,28.85
2018-07-25T00:29:21.870Z,28.86
2018-07-25T00:29:48.005Z,28.86
2018-07-25T00:30:14.143Z,28.88
2018-07-25T00:30:40.295Z,28.82
2018-07-25T00:31:06.440Z,28.81
2018-07-25T00:31:32.576Z,28.72
2018-07-25T00:31:58.706Z,28.78
2018-07-25T00:32:24.850Z,28.76
2018-07-25T00:32:50.996Z,28.72
2018-07-25T00:33:17.142Z,28.79
2018-07-25T00:33:43.285Z,28.75
2018-07-25T00:34:09.428Z,28.7
2018-07-25T00:34:35.585Z,28.75
2018-07-25T00:35:01.719Z,28.81
2018-07-25T00:35:27.859Z,28.78
2018-07-25T00:35:54.003Z,28.79
2018-07-25T00:36:20.190Z,28.72
2018-07-25T00:36:46.288Z,28.74
2018-07-25T00:37:12.441Z,28.64
2018-07-25T00:37:38.565Z,28.66
2018-07-25T00:38:04.701Z,28.69
2018-07-25T00:38:30.845Z,28.7
2018-07-25T00:38:56.985Z,28.72
2018-07-25T00:39:23.150Z,28.72
2018-07-25T00:39:49.282Z,28.72
2018-07-25T00:40:15.430Z,28.72
2018-07-25T00:40:41.589Z,28.69
2018-07-25T00:41:07.733Z,28.7
2018-07-25T00:41:33.895Z,28.6
2018-07-25T00:42:00.038Z,28.62
2018-07-25T00:42:26.196Z,28.62
2018-07-25T00:42:52.344Z,28.63
2018-07-25T00:43:18.477Z,28.7
2018-07-25T00:43:44.620Z,28.59
2018-07-25T00:44:10.795Z,28.63
2018-07-25T00:44:37.362Z,28.62
2018-07-25T00:45:03.538Z,28.57
2018-07-25T00:45:29.676Z,28.62
2018-07-25T00:45:55.817Z,28.57
2018-07-25T00:46:21.981Z,28.59
2018-07-25T00:46:48.116Z,28.56
2018-07-25T00:47:14.280Z,28.48
2018-07-25T00:47:40.417Z,28.48
2018-07-25T00:48:06.560Z,28.54
2018-07-25T00:48:32.696Z,28.56
2018-07-25T00:48:58.842Z,28.49
2018-07-25T00:49:24.979Z,28.47
2018-07-25T00:49:51.130Z,28.51
2018-07-25T00:50:17.290Z,28.47
2018-07-25T00:50:43.432Z,28.47
2018-07-25T00:51:09.599Z,28.44
2018-07-25T00:51:35.738Z,28.38
2018-07-25T00:52:01.887Z,28.35
2018-07-25T00:52:28.033Z,28.38
2018-07-25T00:52:54.172Z,28.42
2018-07-25T00:53:20.308Z,28.37
2018-07-25T00:53:46.447Z,28.39
2018-07-25T00:54:12.587Z,28.42
2018-07-25T00:54:38.728Z,28.35
2018-07-25T00:55:04.864Z,28.3
2018-07-25T00:55:31.082Z,28.27
2018-07-25T00:55:57.159Z,28.32
2018-07-25T00:56:23.304Z,28.26
2018-07-25T00:56:49.444Z,28.37
2018-07-25T00:57:15.587Z,28.3
2018-07-25T00:57:41.728Z,28.3
2018-07-25T00:58:07.861Z,28.32
2018-07-25T00:58:34.025Z,28.23
2018-07-25T00:59:00.173Z,28.23
2018-07-25T00:59:26.309Z,28.26
2018-07-25T00:59:52.478Z,28.22
2018-07-25T01:00:18.613Z,28.23
2018-07-25T01:00:44.747Z,28.26
2018-07-25T01:01:10.891Z,28.22
2018-07-25T01:01:37.052Z,28.19
2018-07-25T01:02:03.193Z,28.2
2018-07-25T01:02:29.332Z,28.22
2018-07-25T01:02:55.469Z,28.22
2018-07-25T01:03:21.615Z,28.2
2018-07-25T01:03:47.798Z,28.17
2018-07-25T01:04:13.935Z,28.11
2018-07-25T01:04:40.080Z,28.07
2018-07-25T01:05:06.213Z,28.04
2018-07-25T01:05:32.356Z,28.08
2018-07-25T01:05:58.528Z,28.02
2018-07-25T01:06:24.680Z,28.04
2018-07-25T01:06:50.821Z,28.05
2018-07-25T01:07:16.961Z,27.96
2018-07-25T01:07:43.100Z,27.98
2018-07-25T01:08:09.269Z,27.93
2018-07-25T01:08:35.410Z,27.92
2018-07-25T01:09:01.552Z,28.01
2018-07-25T01:09:27.714Z,27.95
2018-07-25T01:09:53.852Z,27.92
2018-07-25T01:10:19.989Z,27.92
2018-07-25T01:10:46.133Z,28
2018-07-25T01:11:12.274Z,27.95
2018-07-25T01:11:38.418Z,27.86
2018-07-25T01:12:04.549Z,27.85
2018-07-25T01:12:30.702Z,27.83
2018-07-25T01:12:56.849Z,27.95
2018-07-25T01:13:23.001Z,27.8
2018-07-25T01:13:49.169Z,27.86
2018-07-25T01:14:15.308Z,27.78
2018-07-25T01:14:41.438Z,27.82
2018-07-25T01:15:07.577Z,27.74
2018-07-25T01:15:33.720Z,27.77
2018-07-25T01:15:59.865Z,27.78
2018-07-25T01:16:26.009Z,27.73
2018-07-25T01:16:52.142Z,27.7
2018-07-25T01:17:18.284Z,27.6
2018-07-25T01:17:44.417Z,27.63
2018-07-25T01:18:10.559Z,27.59
2018-07-25T01:18:36.694Z,27.6
2018-07-25T01:19:02.837Z,27.58
2018-07-25T01:19:28.979Z,27.63
2018-07-25T01:19:55.114Z,27.59
2018-07-25T01:20:21.279Z,27.63
2018-07-25T01:20:47.442Z,27.67
2018-07-25T01:21:13.580Z,27.6
2018-07-25T01:21:39.710Z,27.67
2018-07-25T01:22:05.880Z,27.63
2018-07-25T01:22:32.015Z,27.64
2018-07-25T01:22:58.156Z,27.65
2018-07-25T01:23:24.299Z,27.6
2018-07-25T01:23:50.442Z,27.59
2018-07-25T01:24:16.580Z,27.6
2018-07-25T01:24:42.721Z,27.63
2018-07-25T01:25:08.859Z,27.59
2018-07-25T01:25:35.031Z,27.64
2018-07-25T01:26:01.159Z,27.59
2018-07-25T01:26:27.301Z,27.55
2018-07-25T01:26:53.442Z,27.63
2018-07-25T01:27:19.577Z,27.58
2018-07-25T01:27:45.716Z,27.63
2018-07-25T01:28:11.857Z,27.58
2018-07-25T01:28:38.009Z,27.58
2018-07-25T01:29:04.146Z,27.54
2018-07-25T01:29:30.286Z,27.6
2018-07-25T01:29:56.423Z,27.54
2018-07-25T01:30:22.567Z,27.55
2018-07-25T01:30:48.701Z,27.49
2018-07-25T01:31:14.850Z,27.42
2018-07-25T01:31:40.992Z,27.42
2018-07-25T01:32:07.155Z,27.51
2018-07-25T01:32:33.303Z,27.44
2018-07-25T01:32:59.472Z,27.47
2018-07-25T01:33:25.614Z,27.48
2018-07-25T01:33:51.787Z,27.49
2018-07-25T01:34:17.942Z,27.4
2018-07-25T01:34:44.086Z,27.48
2018-07-25T01:35:10.225Z,27.45
2018-07-25T01:35:36.371Z,27.39
2018-07-25T01:36:02.500Z,27.37
2018-07-25T01:36:28.664Z,27.35
2018-07-25T01:36:54.804Z,27.32
2018-07-25T01:37:20.947Z,27.3
2018-07-25T01:37:47.086Z,27.32
2018-07-25T01:38:13.228Z,27.3
2018-07-25T01:38:39.367Z,27.27
2018-07-25T01:39:05.509Z,27.3
2018-07-25T01:39:31.671Z,27.33
2018-07-25T01:39:57.810Z,27.32
2018-07-25T01:40:23.950Z,27.27
2018-07-25T01:40:50.084Z,27.35
2018-07-25T01:41:16.275Z,27.35
2018-07-25T01:41:42.444Z,27.27
2018-07-25T01:42:08.587Z,27.29
2018-07-25T01:42:34.727Z,27.26
2018-07-25T01:43:00.872Z,27.26
2018-07-25T01:43:27.008Z,27.21
2018-07-25T01:43:53.150Z,27.25
2018-07-25T01:44:19.288Z,27.22
2018-07-25T01:44:45.425Z,27.3
2018-07-25T01:45:11.571Z,27.17
2018-07-25T01:45:37.721Z,27.17
2018-07-25T01:46:03.858Z,27.18
2018-07-25T01:46:29.998Z,27.15
2018-07-25T01:46:56.135Z,27.21
2018-07-25T01:47:22.280Z,27.12
2018-07-25T01:47:48.421Z,27.15
2018-07-25T01:48:14.580Z,27.17
2018-07-25T01:48:40.721Z,27.18
2018-07-25T01:49:06.858Z,27.15
2018-07-25T01:49:33.000Z,27.2
2018-07-25T01:49:59.143Z,27.17
2018-07-25T01:50:25.300Z,27.12
2018-07-25T01:50:51.441Z,27.12
2018-07-25T01:51:17.583Z,27.25
2018-07-25T01:51:43.730Z,27.18
2018-07-25T01:52:09.922Z,27.14
2018-07-25T01:52:36.064Z,27.11
2018-07-25T01:53:02.208Z,27.07
2018-07-25T01:53:28.345Z,27.07
2018-07-25T01:53:54.486Z,26.97
2018-07-25T01:54:20.618Z,26.99
2018-07-25T01:54:46.758Z,26.99
2018-07-25T01:55:12.921Z,27.07
2018-07-25T01:55:39.058Z,27
2018-07-25T01:56:05.202Z,27
2018-07-25T01:56:31.374Z,27.02
2018-07-25T01:56:57.522Z,27.02
2018-07-25T01:57:23.683Z,26.97
2018-07-25T01:57:49.823Z,27.03
2018-07-25T01:58:15.966Z,27
2018-07-25T01:58:42.108Z,27.03
2018-07-25T01:59:08.277Z,26.96
2018-07-25T01:59:34.409Z,27
2018-07-25T02:00:00.585Z,26.93
2018-07-25T02:00:26.721Z,26.95
2018-07-25T02:00:52.858Z,27.03
2018-07-25T02:01:19.020Z,26.96
2018-07-25T02:01:45.168Z,26.92
2018-07-25T02:02:11.310Z,26.95
2018-07-25T02:02:37.451Z,26.81
2018-07-25T02:03:03.615Z,26.89
2018-07-25T02:03:29.753Z,26.9
2018-07-25T02:03:55.917Z,26.92
2018-07-25T02:04:22.058Z,26.88
2018-07-25T02:04:48.199Z,26.92
2018-07-25T02:05:14.346Z,26.89
2018-07-25T02:05:40.492Z,26.84
2018-07-25T02:06:06.623Z,26.9
2018-07-25T02:06:32.768Z,26.89
2018-07-25T02:06:58.932Z,26.89
2018-07-25T02:07:25.073Z,26.85
2018-07-25T02:07:51.213Z,26.85
2018-07-25T02:08:17.510Z,26.83
2018-07-25T02:08:43.539Z,26.77
2018-07-25T02:09:09.674Z,26.73
2018-07-25T02:09:35.813Z,26.77
2018-07-25T02:10:02.013Z,26.77
2018-07-25T02:10:28.176Z,26.74
2018-07-25T02:10:54.309Z,26.77
2018-07-25T02:11:20.472Z,26.68
2018-07-25T02:11:46.633Z,26.81
2018-07-25T02:12:12.802Z,26.81
2018-07-25T02:12:38.960Z,26.73
2018-07-25T02:13:05.108Z,26.74
2018-07-25T02:13:31.304Z,26.73
2018-07-25T02:13:57.416Z,26.75
2018-07-25T02:14:23.549Z,26.62
2018-07-25T02:14:49.739Z,26.63
2018-07-25T02:15:15.882Z,26.73
2018-07-25T02:15:42.015Z,26.7
2018-07-25T02:16:08.179Z,26.74
2018-07-25T02:16:34.313Z,26.78
2018-07-25T02:17:00.452Z,26.75
2018-07-25T02:17:26.613Z,26.73
2018-07-25T02:17:52.762Z,26.73
2018-07-25T02:18:18.898Z,26.63
2018-07-25T02:18:45.067Z,26.65
2018-07-25T02:19:11.201Z,26.59
2018-07-25T02:19:37.365Z,26.63
2018-07-25T02:20:03.501Z,26.58
2018-07-25T02:20:29.639Z,26.53
2018-07-25T02:20:55.784Z,26.58
2018-07-25T02:21:21.938Z,26.62
2018-07-25T02:21:48.077Z,26.55
2018-07-25T02:22:14.221Z,26.6
2018-07-25T02:22:40.360Z,26.56
2018-07-25T02:23:06.523Z,26.55
2018-07-25T02:23:32.689Z,26.48
2018-07-25T02:23:58.856Z,26.62
2018-07-25T02:24:25.024Z,26.51
2018-07-25T02:24:51.158Z,26.53
2018-07-25T02:25:17.304Z,26.52
2018-07-25T02:25:43.446Z,26.53
2018-07-25T02:26:09.618Z,26.43
2018-07-25T02:26:35.757Z,26.45
2018-07-25T02:27:01.900Z,26.41
2018-07-25T02:27:28.034Z,26.37
2018-07-25T02:27:54.230Z,26.37
2018-07-25T02:28:20.314Z,26.41
2018-07-25T02:28:46.473Z,26.48
2018-07-25T02:29:12.612Z,26.41
2018-07-25T02:29:38.751Z,26.33
2018-07-25T02:30:04.900Z,26.41
2018-07-25T02:30:31.108Z,26.36
2018-07-25T02:30:57.304Z,26.4
2018-07-25T02:31:23.465Z,26.28
2018-07-25T02:31:49.604Z,26.28
2018-07-25T02:32:15.741Z,26.31
2018-07-25T02:32:41.883Z,26.29
2018-07-25T02:33:08.028Z,26.26
2018-07-25T02:33:34.205Z,26.26
2018-07-25T02:34:00.384Z,26.37
2018-07-25T02:34:26.582Z,26.33
2018-07-25T02:34:52.742Z,26.29
2018-07-25T02:35:18.964Z,26.28
2018-07-25T02:35:45.100Z,26.29
2018-07-25T02:36:11.270Z,26.19
2018-07-25T02:36:37.450Z,26.26
2018-07-25T02:37:03.599Z,26.29
2018-07-25T02:37:29.763Z,26.26
2018-07-25T02:37:55.902Z,26.31
2018-07-25T02:38:22.116Z,26.29
2018-07-25T02:38:48.297Z,26.29
2018-07-25T02:39:14.441Z,26.19
2018-07-25T02:39:40.678Z,26.16
2018-07-25T02:40:06.819Z,26.18
2018-07-25T02:40:32.959Z,26.22
2018-07-25T02:40:59.123Z,26.22
2018-07-25T02:41:25.301Z,26.15
2018-07-25T02:41:51.461Z,26.21
2018-07-25T02:42:17.696Z,26.18
2018-07-25T02:42:43.838Z,26.16
2018-07-25T02:43:10.025Z,26.15
2018-07-25T02:43:36.220Z,26.15
2018-07-25T02:44:02.324Z,26.16
2018-07-25T02:44:28.484Z,26.18
2018-07-25T02:44:54.672Z,26.15
2018-07-25T02:45:20.811Z,26.19
2018-07-25T02:45:46.954Z,26.15
2018-07-25T02:46:13.121Z,26.29
2018-07-25T02:46:39.281Z,26.19
2018-07-25T02:47:05.440Z,26.29
2018-07-25T02:47:31.583Z,26.18
2018-07-25T02:47:57.724Z,26.1
2018-07-25T02:48:23.910Z,26.18
2018-07-25T02:48:50.053Z,26.23
2018-07-25T02:49:16.193Z,26.31
2018-07-25T02:49:42.367Z,26.31
2018-07-25T02:50:08.524Z,26.29
2018-07-25T02:50:34.692Z,26.25
2018-07-25T02:51:00.827Z,26.22
2018-07-25T02:51:26.991Z,26.25
2018-07-25T02:51:53.151Z,26.25
2018-07-25T02:52:19.321Z,26.25
2018-07-25T02:52:45.449Z,26.23
2018-07-25T02:53:11.612Z,26.31
2018-07-25T02:53:37.752Z,26.28
2018-07-25T02:54:03.934Z,26.29
2018-07-25T02:54:30.100Z,26.29
2018-07-25T02:54:56.230Z,26.26
2018-07-25T02:55:22.373Z,26.28
2018-07-25T02:55:48.509Z,26.21
2018-07-25T02:56:14.652Z,26.15
2018-07-25T02:56:40.856Z,26.15
2018-07-25T02:57:06.956Z,26.13
2018-07-25T02:57:33.121Z,26.15
2018-07-25T02:57:59.308Z,26.18
2018-07-25T02:58:25.444Z,26.13
2018-07-25T02:58:51.615Z,26.18
2018-07-25T02:59:17.761Z,26.1
2018-07-25T02:59:43.949Z,26.18
2018-07-25T03:00:10.085Z,26.19
2018-07-25T03:00:36.236Z,26.18
2018-07-25T03:01:02.414Z,26.16
2018-07-25T03:01:28.557Z,26.16
2018-07-25T03:01:54.696Z,26.16
2018-07-25T03:02:20.856Z,26.21
2018-07-25T03:02:47.041Z,26.21
2018-07-25T03:03:13.176Z,26.15
2018-07-25T03:03:39.369Z,26.18
2018-07-25T03:04:05.508Z,26.15
2018-07-25T03:04:31.684Z,26.15
2018-07-25T03:04:57.847Z,26.19
2018-07-25T03:05:24.000Z,26.15
2018-07-25T03:05:50.144Z,26.15
2018-07-25T03:06:16.336Z,25.99
2018-07-25T03:06:42.547Z,26.03
2018-07-25T03:07:08.685Z,26.07
2018-07-25T03:07:34.876Z,26.15
2018-07-25T03:08:01.013Z,26.03
2018-07-25T03:08:27.183Z,26.02
2018-07-25T03:08:53.446Z,26.02
2018-07-25T03:09:19.601Z,26.09
2018-07-25T03:09:45.836Z,25.99
2018-07-25T03:10:12.152Z,25.95
2018-07-25T03:10:38.383Z,25.98
2018-07-25T03:11:04.519Z,25.95
2018-07-25T03:11:30.707Z,25.9
2018-07-25T03:11:56.820Z,25.81
2018-07-25T03:12:22.986Z,25.81
2018-07-25T03:12:49.124Z,25.84
2018-07-25T03:13:15.309Z,25.9
2018-07-25T03:13:41.454Z,25.87
2018-07-25T03:14:07.664Z,25.9
2018-07-25T03:14:33.811Z,25.93
2018-07-25T03:14:59.990Z,26.02
2018-07-25T03:15:26.158Z,25.87
2018-07-25T03:15:52.291Z,25.87
2018-07-25T03:16:18.439Z,25.87
2018-07-25T03:16:44.660Z,25.88
2018-07-25T03:17:10.811Z,25.99
2018-07-25T03:17:36.981Z,26
2018-07-25T03:18:03.146Z,25.9
2018-07-25T03:18:29.308Z,25.84
2018-07-25T03:18:55.474Z,25.88
2018-07-25T03:19:21.672Z,25.88
2018-07-25T03:19:47.862Z,25.83
2018-07-25T03:20:14.001Z,25.95
2018-07-25T03:20:40.187Z,25.93
2018-07-25T03:21:06.343Z,25.96
2018-07-25T03:21:32.498Z,25.85
2018-07-25T03:21:58.670Z,25.9
2018-07-25T03:22:24.857Z,25.9
2018-07-25T03:22:51.020Z,25.87
2018-07-25T03:23:17.173Z,25.81
2018-07-25T03:23:43.345Z,25.81
2018-07-25T03:24:09.481Z,25.7
2018-07-25T03:24:35.620Z,25.77
2018-07-25T03:25:01.784Z,25.81
2018-07-25T03:25:27.950Z,25.8
2018-07-25T03:25:54.159Z,25.75
2018-07-25T03:26:20.331Z,25.81
2018-07-25T03:26:46.517Z,25.8
2018-07-25T03:27:12.651Z,25.81
2018-07-25T03:27:38.785Z,25.81
2018-07-25T03:28:04.956Z,25.8
2018-07-25T03:28:31.095Z,25.77
2018-07-25T03:28:57.228Z,25.73
2018-07-25T03:29:23.377Z,25.77
2018-07-25T03:29:49.503Z,25.83
2018-07-25T03:30:15.669Z,25.78
2018-07-25T03:30:41.834Z,25.84
2018-07-25T03:31:08.000Z,25.83
2018-07-25T03:31:34.256Z,25.81
2018-07-25T03:32:00.316Z,25.75
2018-07-25T03:32:26.453Z,25.78
2018-07-25T03:32:52.592Z,25.81
2018-07-25T03:33:18.730Z,25.84
2018-07-25T03:33:44.865Z,25.81
2018-07-25T03:34:11.021Z,25.84
2018-07-25T03:34:37.171Z,25.81
2018-07-25T03:35:03.307Z,25.75
2018-07-25T03:35:29.441Z,25.8
2018-07-25T03:35:55.585Z,25.72
2018-07-25T03:36:21.719Z,25.8
2018-07-25T03:36:47.862Z,25.62
2018-07-25T03:37:13.995Z,25.68
2018-07-25T03:37:40.134Z,25.75
2018-07-25T03:38:06.277Z,25.6
2018-07-25T03:38:32.412Z,25.7
2018-07-25T03:38:58.593Z,25.72
2018-07-25T03:39:24.763Z,25.65
2018-07-25T03:39:50.920Z,25.72
2018-07-25T03:40:17.054Z,25.69
2018-07-25T03:40:43.192Z,25.77
2018-07-25T03:41:09.333Z,25.75
2018-07-25T03:41:35.480Z,25.78
2018-07-25T03:42:01.628Z,25.75
2018-07-25T03:42:27.789Z,25.72
2018-07-25T03:42:53.937Z,25.75
2018-07-25T03:43:20.087Z,25.7
2018-07-25T03:43:46.239Z,25.72
2018-07-25T03:44:12.384Z,25.7
2018-07-25T03:44:38.526Z,25.8
2018-07-25T03:45:04.687Z,25.73
2018-07-25T03:45:30.835Z,25.69
2018-07-25T03:45:56.973Z,25.72
2018-07-25T03:46:23.109Z,25.69
2018-07-25T03:46:49.251Z,25.77
2018-07-25T03:47:15.382Z,25.68
2018-07-25T03:47:41.524Z,25.65
2018-07-25T03:48:07.671Z,25.73
2018-07-25T03:48:33.823Z,25.66
2018-07-25T03:48:59.968Z,25.69
2018-07-25T03:49:26.106Z,25.75
2018-07-25T03:49:52.250Z,25.65
2018-07-25T03:50:18.385Z,25.72
2018-07-25T03:50:44.521Z,25.73
2018-07-25T03:51:10.667Z,25.65
2018-07-25T03:51:36.805Z,25.73
2018-07-25T03:52:02.944Z,25.62
2018-07-25T03:52:29.086Z,25.69
2018-07-25T03:52:55.244Z,25.73
2018-07-25T03:53:21.383Z,25.6
2018-07-25T03:53:47.524Z,25.69
2018-07-25T03:54:13.665Z,25.73
2018-07-25T03:54:39.805Z,25.63
2018-07-25T03:55:05.946Z,25.65
2018-07-25T03:55:32.084Z,25.65
2018-07-25T03:55:58.221Z,25.7
2018-07-25T03:56:24.362Z,25.73
2018-07-25T03:56:50.505Z,25.68
2018-07-25T03:57:16.645Z,25.6
2018-07-25T03:57:42.786Z,25.62
2018-07-25T03:58:08.916Z,25.62
2018-07-25T03:58:35.059Z,25.63
2018-07-25T03:59:01.198Z,25.59
2018-07-25T03:59:27.333Z,25.6
2018-07-25T03:59:53.473Z,25.59
2018-07-25T04:00:19.616Z,25.55
2018-07-25T04:00:45.759Z,25.58
2018-07-25T04:01:11.897Z,25.62
2018-07-25T04:01:38.046Z,25.55
2018-07-25T04:02:04.231Z,25.54
2018-07-25T04:02:30.367Z,25.6
2018-07-25T04:02:56.494Z,25.58
2018-07-25T04:03:22.684Z,25.54
2018-07-25T04:03:48.821Z,25.55
2018-07-25T04:04:14.966Z,25.59
2018-07-25T04:04:41.138Z,25.55
2018-07-25T04:05:07.291Z,25.53
2018-07-25T04:05:33.465Z,25.59
2018-07-25T04:05:59.602Z,25.59
2018-07-25T04:06:25.738Z,25.59
2018-07-25T04:06:51.872Z,25.62
2018-07-25T04:07:18.006Z,25.6
2018-07-25T04:07:44.147Z,25.55
2018-07-25T04:08:10.298Z,25.6
2018-07-25T04:08:36.477Z,25.62
2018-07-25T04:09:02.616Z,25.63
2018-07-25T04:09:28.779Z,25.72
2018-07-25T04:09:54.917Z,25.59
2018-07-25T04:10:21.060Z,25.7
2018-07-25T04:10:47.205Z,25.7
2018-07-25T04:11:13.339Z,25.65
2018-07-25T04:11:39.507Z,25.59
2018-07-25T04:12:05.637Z,25.62
2018-07-25T04:12:31.789Z,25.63
2018-07-25T04:12:57.921Z,25.54
2018-07-25T04:13:24.062Z,25.54
2018-07-25T04:13:50.197Z,25.59
2018-07-25T04:14:16.337Z,25.55
2018-07-25T04:14:42.500Z,25.51
2018-07-25T04:15:08.644Z,25.6
2018-07-25T04:15:34.782Z,25.55
2018-07-25T04:16:00.944Z,25.53
2018-07-25T04:16:27.087Z,25.59
2018-07-25T04:16:53.226Z,25.46
2018-07-25T04:17:19.390Z,25.48
2018-07-25T04:17:45.520Z,25.41
2018-07-25T04:18:11.661Z,25.43
2018-07-25T04:18:37.797Z,25.43
2018-07-25T04:19:03.959Z,25.43
2018-07-25T04:19:30.101Z,25.46
2018-07-25T04:19:56.243Z,25.58
2018-07-25T04:20:22.381Z,25.48
2018-07-25T04:20:48.522Z,25.47
2018-07-25T04:21:14.717Z,25.47
2018-07-25T04:21:40.856Z,25.41
2018-07-25T04:22:06.998Z,25.35
2018-07-25T04:22:33.135Z,25.44
2018-07-25T04:22:59.274Z,25.44
2018-07-25T04:23:25.454Z,25.36
2018-07-25T04:23:51.590Z,25.36
2018-07-25T04:24:17.729Z,25.41
2018-07-25T04:24:43.902Z,25.44
2018-07-25T04:25:10.038Z,25.47
2018-07-25T04:25:36.173Z,25.44
2018-07-25T04:26:02.305Z,25.53
2018-07-25T04:26:28.449Z,25.43
2018-07-25T04:26:54.585Z,25.53
2018-07-25T04:27:20.725Z,25.48
2018-07-25T04:27:46.862Z,25.46
2018-07-25T04:28:12.997Z,25.5
2018-07-25T04:28:39.144Z,25.53
2018-07-25T04:29:05.320Z,25.59
2018-07-25T04:29:31.468Z,25.51
2018-07-25T04:29:57.606Z,25.51
2018-07-25T04:30:23.750Z,25.53
2018-07-25T04:30:49.891Z,25.5
2018-07-25T04:31:16.032Z,25.58
2018-07-25T04:31:42.179Z,25.6
2018-07-25T04:32:08.311Z,25.55
2018-07-25T04:32:34.456Z,25.6
2018-07-25T04:33:00.622Z,25.53
2018-07-25T04:33:26.729Z,25.58
2018-07-25T04:33:52.892Z,25.55
2018-07-25T04:34:19.037Z,25.51
2018-07-25T04:34:45.230Z,25.59
2018-07-25T04:35:11.310Z,25.55
2018-07-25T04:35:37.453Z,25.55
2018-07-25T04:36:03.592Z,25.62
2018-07-25T04:36:29.734Z,25.6
2018-07-25T04:36:55.866Z,25.59
2018-07-25T04:37:22.061Z,25.62
2018-07-25T04:37:48.203Z,25.6
2018-07-25T04:38:14.350Z,25.6
2018-07-25T04:38:40.482Z,25.68
2018-07-25T04:39:06.652Z,25.65
2018-07-25T04:39:32.792Z,25.6
2018-07-25T04:39:58.938Z,25.63
2018-07-25T04:40:25.078Z,25.62
2018-07-25T04:40:51.218Z,25.59
2018-07-25T04:41:17.353Z,25.65
2018-07-25T04:41:43.500Z,25.62
2018-07-25T04:42:09.663Z,25.72
2018-07-25T04:42:35.863Z,25.73
2018-07-25T04:43:01.983Z,25.73
2018-07-25T04:43:28.121Z,25.75
2018-07-25T04:43:54.265Z,25.78
2018-07-25T04:44:20.450Z,25.66
2018-07-25T04:44:46.615Z,25.63
2018-07-25T04:45:12.784Z,25.75
2018-07-25T04:45:38.952Z,25.73
2018-07-25T04:46:05.150Z,25.69
2018-07-25T04:46:31.345Z,25.73
2018-07-25T04:46:57.437Z,25.73
2018-07-25T04:47:23.576Z,25.6
2018-07-25T04:47:49.717Z,25.63
2018-07-25T04:48:15.856Z,25.68
2018-07-25T04:48:42.043Z,25.73
2018-07-25T04:49:08.203Z,25.68
2018-07-25T04:49:34.353Z,25.73
2018-07-25T04:50:00.518Z,25.69
2018-07-25T04:50:26.678Z,25.68
2018-07-25T04:50:52.850Z,25.66
2018-07-25T04:51:18.992Z,25.69
2018-07-25T04:51:45.130Z,25.68
2018-07-25T04:52:11.270Z,25.75
2018-07-25T04:52:37.435Z,25.78
2018-07-25T04:53:03.577Z,25.75
2018-07-25T04:53:29.719Z,25.68
2018-07-25T04:53:55.885Z,25.72
2018-07-25T04:54:22.028Z,25.73
2018-07-25T04:54:48.168Z,25.72
2018-07-25T04:55:14.331Z,25.77
2018-07-25T04:55:40.469Z,25.72
2018-07-25T04:56:06.629Z,25.78
2018-07-25T04:56:32.796Z,25.75
2018-07-25T04:56:58.938Z,25.77
2018-07-25T04:57:25.093Z,25.8
2018-07-25T04:57:51.293Z,25.81
2018-07-25T04:58:17.434Z,25.81
2018-07-25T04:58:43.597Z,25.83
2018-07-25T04:59:09.762Z,25.73
2018-07-25T04:59:35.942Z,25.84
2018-07-25T05:00:02.106Z,25.83
2018-07-25T05:00:28.246Z,25.88
2018-07-25T05:00:54.410Z,25.88
2018-07-25T05:01:20.546Z,25.9
2018-07-25T05:01:46.690Z,25.9
2018-07-25T05:02:12.832Z,25.91
2018-07-25T05:02:38.997Z,25.98
2018-07-25T05:03:05.175Z,25.99
2018-07-25T05:03:31.317Z,26
2018-07-25T05:03:57.454Z,25.99
2018-07-25T05:04:23.598Z,25.96
2018-07-25T05:04:49.737Z,25.99
2018-07-25T05:05:15.879Z,26.07
2018-07-25T05:05:42.045Z,26.13
2018-07-25T05:06:08.182Z,26.05
2018-07-25T05:06:34.326Z,26.16
2018-07-25T05:07:00.469Z,26.1
2018-07-25T05:07:26.608Z,26.19
2018-07-25T05:07:52.771Z,26.23
2018-07-25T05:08:18.916Z,26.16
2018-07-25T05:08:45.072Z,26.15
2018-07-25T05:09:11.214Z,26.15
2018-07-25T05:09:37.354Z,26.15
2018-07-25T05:10:03.496Z,26.28
2018-07-25T05:10:29.636Z,26.31
2018-07-25T05:10:55.797Z,26.26
2018-07-25T05:11:21.965Z,26.25
2018-07-25T05:11:48.106Z,26.26
2018-07-25T05:12:14.248Z,26.25
2018-07-25T05:12:40.452Z,26.28
2018-07-25T05:13:06.522Z,26.44
2018-07-25T05:13:32.686Z,26.4
2018-07-25T05:13:58.849Z,26.29
2018-07-25T05:14:24.986Z,26.37
2018-07-25T05:14:51.124Z,26.41
2018-07-25T05:15:17.274Z,26.4
2018-07-25T05:15:43.401Z,26.38
2018-07-25T05:16:09.572Z,26.55
2018-07-25T05:16:35.709Z,26.45
2018-07-25T05:17:01.852Z,26.47
2018-07-25T05:17:27.985Z,26.38
2018-07-25T05:17:54.189Z,26.43
2018-07-25T05:18:20.296Z,26.41
2018-07-25T05:18:46.439Z,26.47
2018-07-25T05:19:12.574Z,26.48
2018-07-25T05:19:38.715Z,26.45
2018-07-25T05:20:04.885Z,26.52
2018-07-25T05:20:31.023Z,26.48
2018-07-25T05:20:57.163Z,26.48
2018-07-25T05:21:23.301Z,26.52
2018-07-25T05:21:49.440Z,26.51
2018-07-25T05:22:15.574Z,26.47
2018-07-25T05:22:41.715Z,26.51
2018-07-25T05:23:07.918Z,26.51
2018-07-25T05:23:34.064Z,26.4
2018-07-25T05:24:00.198Z,26.38
2018-07-25T05:24:26.342Z,26.48
2018-07-25T05:24:52.488Z,26.47
2018-07-25T05:25:18.658Z,26.51
2018-07-25T05:25:44.813Z,26.53
2018-07-25T05:26:10.957Z,26.44
2018-07-25T05:26:37.115Z,26.56
2018-07-25T05:27:03.283Z,26.47
2018-07-25T05:27:29.419Z,26.51
2018-07-25T05:27:55.562Z,26.51
2018-07-25T05:28:21.711Z,26.56
2018-07-25T05:28:47.854Z,26.53
2018-07-25T05:29:13.988Z,26.59
2018-07-25T05:29:40.150Z,26.58
2018-07-25T05:30:06.342Z,26.65
2018-07-25T05:30:32.513Z,26.65
2018-07-25T05:30:58.672Z,26.71
2018-07-25T05:31:24.841Z,26.71
2018-07-25T05:31:50.976Z,26.66
2018-07-25T05:32:17.146Z,26.73
2018-07-25T05:32:43.293Z,26.66
2018-07-25T05:33:09.430Z,26.74
2018-07-25T05:33:35.575Z,26.78
2018-07-25T05:34:01.706Z,26.75
2018-07-25T05:34:27.855Z,26.74
2018-07-25T05:34:53.995Z,26.75
2018-07-25T05:35:20.159Z,26.77
2018-07-25T05:35:46.299Z,26.75
2018-07-25T05:36:12.444Z,26.85
2018-07-25T05:36:38.576Z,26.75
2018-07-25T05:37:04.724Z,26.77
2018-07-25T05:37:30.868Z,26.89
2018-07-25T05:37:56.999Z,26.85